Terminal Aerodrome Forecast
Issued by NWS

Home | Current Version | Previous Version | Text Only | Print | Product List | Glossary On
Versions: 1 2 3 4 5 6 7 8 9 10 11 12 13 14 15 16 17 18 19
538
FTUS43 KAPX 231722
TAFMBL
TAF
KMBL 231722Z 2318/2418 24008G16KT P6SM SCT050
     FM232000 25007KT P6SM SCT250
     FM240000 VRB03KT P6SM SKC
     FM240800 19007KT P6SM SCT080
     FM241000 20008KT P6SM BKN070
     FM241100 19008KT P6SM BKN070 WS020/22035KT
     FM241500 20011G19KT P6SM BKN080 WS020/21045KT=

USA.gov is the U.S. government's official web portal to all federal, state and local government web resources and services.